sensor_id;sensor_type;location;lat;lon;timestamp;pressure;altitude;pressure_sealevel;temperature;humidity
76046;BME280;64741;41.730;44.788;2023-04-24T00:01:45;989.2;;;24.3;44.5
76046;BME280;64741;41.730;44.788;2023-04-24T00:06:45;989.3;;;24.3;44.5
76046;BME280;64741;41.730;44.788;2023-04-24T00:11:47;989.3;;;24.3;44.4
76046;BME280;64741;41.730;44.788;2023-04-24T00:16:51;989.3;;;24.3;44.5
76046;BME280;64741;41.730;44.788;2023-04-24T00:21:47;989.2;;;24.3;44.4
76046;BME280;64741;41.730;44.788;2023-04-24T00:26:47;989.3;;;24.3;44.5
76046;BME280;64741;41.730;44.788;2023-04-24T00:31:45;989.4;;;24.3;44.4
76046;BME280;64741;41.730;44.788;2023-04-24T00:36:49;989.4;;;24.3;44.5
76046;BME280;64741;41.730;44.788;2023-04-24T00:41:45;989.5;;;24.3;44.6
76046;BME280;64741;41.730;44.788;2023-04-24T00:46:45;989.6;;;24.3;44.5
76046;BME280;64741;41.730;44.788;2023-04-24T00:51:49;989.6;;;24.3;44.5
76046;BME280;64741;41.730;44.788;2023-04-24T00:56:51;989.6;;;24.3;44.5
76046;BME280;64741;41.730;44.788;2023-04-24T01:01:47;989.4;;;24.3;44.6
76046;BME280;64741;41.730;44.788;2023-04-24T01:06:51;989.3;;;24.3;44.6
76046;BME280;64741;41.730;44.788;2023-04-24T01:11:47;989.2;;;24.3;44.7
76046;BME280;64741;41.730;44.788;2023-04-24T01:16:35;989.2;;;24.3;44.6
76046;BME280;64741;41.730;44.788;2023-04-24T01:21:47;989.3;;;24.3;44.7
76046;BME280;64741;41.730;44.788;2023-04-24T01:26:45;989.4;;;24.3;44.7
76046;BME280;64741;41.730;44.788;2023-04-24T01:31:41;989.4;;;24.3;44.6
76046;BME280;64741;41.730;44.788;2023-04-24T01:36:47;989.3;;;24.3;44.6
76046;BME280;64741;41.730;44.788;2023-04-24T01:41:51;989.4;;;24.3;44.5
76046;BME280;64741;41.730;44.788;2023-04-24T01:46:45;989.3;;;24.3;44.6
76046;BME280;64741;41.730;44.788;2023-04-24T01:51:51;989.3;;;24.3;44.6
76046;BME280;64741;41.730;44.788;2023-04-24T01:56:47;989.2;;;24.3;44.6
76046;BME280;64741;41.730;44.788;2023-04-24T02:01:45;989.2;;;24.3;44.5
76046;BME280;64741;41.730;44.788;2023-04-24T02:06:47;989.2;;;24.3;44.5
76046;BME280;64741;41.730;44.788;2023-04-24T02:11:35;989.2;;;24.3;44.5
76046;BME280;64741;41.730;44.788;2023-04-24T02:16:45;989.3;;;24.3;44.5
76046;BME280;64741;41.730;44.788;2023-04-24T02:21:45;989.4;;;24.3;44.5
76046;BME280;64741;41.730;44.788;2023-04-24T02:26:49;989.3;;;24.3;44.4
76046;BME280;64741;41.730;44.788;2023-04-24T02:31:43;989.4;;;24.2;44.4
76046;BME280;64741;41.730;44.788;2023-04-24T02:36:47;989.5;;;24.2;44.5
76046;BME280;64741;41.730;44.788;2023-04-24T02:41:49;989.7;;;24.2;44.6
76046;BME280;64741;41.730;44.788;2023-04-24T02:46:51;989.8;;;24.2;44.6
76046;BME280;64741;41.730;44.788;2023-04-24T02:51:45;989.9;;;24.2;44.7
76046;BME280;64741;41.730;44.788;2023-04-24T02:56:47;990;;;24.2;44.8
76046;BME280;64741;41.730;44.788;2023-04-24T03:01:51;990.1;;;24.2;44.8
76046;BME280;64741;41.730;44.788;2023-04-24T03:06:49;990.3;;;24.2;44.8
76046;BME280;64741;41.730;44.788;2023-04-24T03:11:47;990.5;;;24.2;44.8
76046;BME280;64741;41.730;44.788;2023-04-24T03:16:47;990.6;;;24.2;44.8
76046;BME280;64741;41.730;44.788;2023-04-24T03:21:51;990.7;;;24.3;44.8
76046;BME280;64741;41.730;44.788;2023-04-24T03:26:45;990.5;;;24.3;44.8
76046;BME280;64741;41.730;44.788;2023-04-24T03:31:45;990.5;;;24.3;44.8
76046;BME280;64741;41.730;44.788;2023-04-24T03:36:51;990.5;;;24.3;44.8
76046;BME280;64741;41.730;44.788;2023-04-24T03:41:47;990.5;;;24.3;44.7
76046;BME280;64741;41.730;44.788;2023-04-24T03:46:47;990.5;;;24.3;44.7
76046;BME280;64741;41.730;44.788;2023-04-24T03:51:45;990.5;;;24.3;44.6
76046;BME280;64741;41.730;44.788;2023-04-24T03:56:47;990.4;;;24.2;44.7
76046;BME280;64741;41.730;44.788;2023-04-24T04:01:47;990.2;;;24.3;44.6
76046;BME280;64741;41.730;44.788;2023-04-24T04:06:45;990.2;;;24.2;44.6
76046;BME280;64741;41.730;44.788;2023-04-24T04:11:51;990.2;;;24.2;44.6
76046;BME280;64741;41.730;44.788;2023-04-24T04:16:45;989.9;;;24.2;44.6
76046;BME280;64741;41.730;44.788;2023-04-24T04:21:49;989.4;;;24.2;44.6
76046;BME280;64741;41.730;44.788;2023-04-24T04:26:47;989.6;;;24.2;44.8
76046;BME280;64741;41.730;44.788;2023-04-24T04:31:51;989.6;;;24.2;44.7
76046;BME280;64741;41.730;44.788;2023-04-24T04:36:47;989.8;;;24.2;44.6
76046;BME280;64741;41.730;44.788;2023-04-24T04:41:47;989.8;;;24.2;44.7
76046;BME280;64741;41.730;44.788;2023-04-24T04:46:49;989.8;;;24.2;44.7
76046;BME280;64741;41.730;44.788;2023-04-24T04:51:45;989.8;;;24.2;44.6
76046;BME280;64741;41.730;44.788;2023-04-24T04:56:51;989.8;;;24.2;44.7
76046;BME280;64741;41.730;44.788;2023-04-24T05:01:47;989.8;;;24.2;44.7
76046;BME280;64741;41.730;44.788;2023-04-24T05:06:43;989.9;;;24.2;44.8
76046;BME280;64741;41.730;44.788;2023-04-24T05:11:49;989.9;;;24.2;44.9
76046;BME280;64741;41.730;44.788;2023-04-24T05:16:47;989.9;;;24.2;44.9
76046;BME280;64741;41.730;44.788;2023-04-24T05:21:47;989.9;;;24.2;44.9
76046;BME280;64741;41.730;44.788;2023-04-24T05:26:43;990;;;24.2;44.9
76046;BME280;64741;41.730;44.788;2023-04-24T05:31:39;990;;;24.2;44.9
76046;BME280;64741;41.730;44.788;2023-04-24T05:36:45;990;;;24.2;44.9
76046;BME280;64741;41.730;44.788;2023-04-24T05:41:43;990;;;24.2;44.9
76046;BME280;64741;41.730;44.788;2023-04-24T05:46:47;990.1;;;24.2;44.9
76046;BME280;64741;41.730;44.788;2023-04-24T05:51:49;990.1;;;24.2;44.8
76046;BME280;64741;41.730;44.788;2023-04-24T05:56:49;990.2;;;24.2;44.9
76046;BME280;64741;41.730;44.788;2023-04-24T06:01:47;990.2;;;24.2;44.9
76046;BME280;64741;41.730;44.788;2023-04-24T06:06:49;990.2;;;24.2;44.9
76046;BME280;64741;41.730;44.788;2023-04-24T06:11:47;990.2;;;24.2;44.9
76046;BME280;64741;41.730;44.788;2023-04-24T06:16:43;990.2;;;24.2;44.9
76046;BME280;64741;41.730;44.788;2023-04-24T06:21:45;990.3;;;24.2;44.9
76046;BME280;64741;41.730;44.788;2023-04-24T06:26:47;990.3;;;24.2;44.9
76046;BME280;64741;41.730;44.788;2023-04-24T06:31:47;990.3;;;24.2;45.2
76046;BME280;64741;41.730;44.788;2023-04-24T06:36:43;990.2;;;24.2;45.3
76046;BME280;64741;41.730;44.788;2023-04-24T06:41:47;990.2;;;24.2;45.4
76046;BME280;64741;41.730;44.788;2023-04-24T06:46:45;990.3;;;24.2;45.6
76046;BME280;64741;41.730;44.788;2023-04-24T06:51:45;990.2;;;24.2;45.6
76046;BME280;64741;41.730;44.788;2023-04-24T06:56:41;990.3;;;24.3;45.6
76046;BME280;64741;41.730;44.788;2023-04-24T07:01:43;990.2;;;24.3;45.6
76046;BME280;64741;41.730;44.788;2023-04-24T07:06:45;990.2;;;24.3;45.5
76046;BME280;64741;41.730;44.788;2023-04-24T07:11:43;990.1;;;24.3;45.4
76046;BME280;64741;41.730;44.788;2023-04-24T07:16:49;990.1;;;24.3;45.5
76046;BME280;64741;41.730;44.788;2023-04-24T07:21:35;990;;;24.3;45.7
76046;BME280;64741;41.730;44.788;2023-04-24T07:26:49;990.1;;;24.3;45.6
76046;BME280;64741;41.730;44.788;2023-04-24T07:31:49;990.1;;;24.3;45.7
76046;BME280;64741;41.730;44.788;2023-04-24T07:36:51;990;;;24.3;45.9
76046;BME280;64741;41.730;44.788;2023-04-24T07:41:47;990;;;24.3;46.2
76046;BME280;64741;41.730;44.788;2023-04-24T07:46:47;990;;;24.3;46.5
76046;BME280;64741;41.730;44.788;2023-04-24T07:51:39;990;;;24.4;46.9
76046;BME280;64741;41.730;44.788;2023-04-24T07:56:45;989.8;;;24.4;47.1
76046;BME280;64741;41.730;44.788;2023-04-24T08:01:47;989.8;;;24.4;47.1
76046;BME280;64741;41.730;44.788;2023-04-24T08:06:49;989.8;;;24.4;47
76046;BME280;64741;41.730;44.788;2023-04-24T08:11:47;989.7;;;24.4;47
76046;BME280;64741;41.730;44.788;2023-04-24T08:16:52;989.6;;;24.3;47.1
76046;BME280;64741;41.730;44.788;2023-04-24T08:21:49;989.6;;;24.3;47.1
76046;BME280;64741;41.730;44.788;2023-04-24T08:26:47;989.6;;;24.3;47
76046;BME280;64741;41.730;44.788;2023-04-24T08:31:47;989.4;;;24.4;46.9
76046;BME280;64741;41.730;44.788;2023-04-24T08:36:49;989.4;;;24.4;46.9
76046;BME280;64741;41.730;44.788;2023-04-24T08:41:49;989.3;;;24.5;46.7
76046;BME280;64741;41.730;44.788;2023-04-24T08:46:47;989.1;;;24.5;46.6
76046;BME280;64741;41.730;44.788;2023-04-24T08:51:53;989.1;;;24.5;46.5
76046;BME280;64741;41.730;44.788;2023-04-24T08:56:53;989;;;24.5;46.5
76046;BME280;64741;41.730;44.788;2023-04-24T09:01:49;989;;;24.5;46.3
76046;BME280;64741;41.730;44.788;2023-04-24T09:06:47;988.9;;;24.5;46.2
76046;BME280;64741;41.730;44.788;2023-04-24T09:11:51;988.9;;;24.5;46.1
76046;BME280;64741;41.730;44.788;2023-04-24T09:16:47;988.7;;;24.4;46.1
76046;BME280;64741;41.730;44.788;2023-04-24T09:21:47;988.6;;;24.4;46
76046;BME280;64741;41.730;44.788;2023-04-24T09:26:47;988.6;;;24.4;46
76046;BME280;64741;41.730;44.788;2023-04-24T09:31:51;988.7;;;24.4;46.1
76046;BME280;64741;41.730;44.788;2023-04-24T09:36:49;988.6;;;24.4;46.1
76046;BME280;64741;41.730;44.788;2023-04-24T09:41:47;988.6;;;24.4;46
76046;BME280;64741;41.730;44.788;2023-04-24T09:46:51;988.5;;;24.4;46
76046;BME280;64741;41.730;44.788;2023-04-24T09:51:49;988.4;;;24.4;46
76046;BME280;64741;41.730;44.788;2023-04-24T09:56:50;988.3;;;24.4;46
76046;BME280;64741;41.730;44.788;2023-04-24T10:01:45;988.4;;;24.3;45.9
76046;BME280;64741;41.730;44.788;2023-04-24T10:06:47;988.4;;;24.3;45.9
76046;BME280;64741;41.730;44.788;2023-04-24T10:11:50;988.4;;;24.3;46
76046;BME280;64741;41.730;44.788;2023-04-24T10:16:11;988.3;;;24.3;46
76046;BME280;64741;41.730;44.788;2023-04-24T10:21:53;988.2;;;24.3;45.9
76046;BME280;64741;41.730;44.788;2023-04-24T10:26:47;988.2;;;24.3;45.8
76046;BME280;64741;41.730;44.788;2023-04-24T10:31:53;988.2;;;24.3;45.8
76046;BME280;64741;41.730;44.788;2023-04-24T10:36:48;988.2;;;24.3;45.8
76046;BME280;64741;41.730;44.788;2023-04-24T10:41:53;988.2;;;24.3;45.8
76046;BME280;64741;41.730;44.788;2023-04-24T10:46:47;988.1;;;24.3;45.8
76046;BME280;64741;41.730;44.788;2023-04-24T10:51:48;988.1;;;24.3;45.8
76046;BME280;64741;41.730;44.788;2023-04-24T10:56:49;988.1;;;24.3;45.8
76046;BME280;64741;41.730;44.788;2023-04-24T11:01:51;988.1;;;24.3;45.8
76046;BME280;64741;41.730;44.788;2023-04-24T11:06:47;988;;;24.2;46
76046;BME280;64741;41.730;44.788;2023-04-24T11:11:35;988;;;24.2;46.3
76046;BME280;64741;41.730;44.788;2023-04-24T11:16:51;987.9;;;24.2;46.6
76046;BME280;64741;41.730;44.788;2023-04-24T11:21:55;987.9;;;24.2;46.6
76046;BME280;64741;41.730;44.788;2023-04-24T11:26:51;987.9;;;24.2;46.6
76046;BME280;64741;41.730;44.788;2023-04-24T11:31:49;987.9;;;24.2;46.6
76046;BME280;64741;41.730;44.788;2023-04-24T11:36:47;987.8;;;24.2;46.6
76046;BME280;64741;41.730;44.788;2023-04-24T11:41:47;987.7;;;24.3;46.5
76046;BME280;64741;41.730;44.788;2023-04-24T11:46:49;987.6;;;24.3;46.8
76046;BME280;64741;41.730;44.788;2023-04-24T11:51:47;987.5;;;24.2;47.1
76046;BME280;64741;41.730;44.788;2023-04-24T11:56:45;987.5;;;24.2;47.2
76046;BME280;64741;41.730;44.788;2023-04-24T12:01:53;987.5;;;24.3;47.3
76046;BME280;64741;41.730;44.788;2023-04-24T12:06:58;987.5;;;24.3;47.5
76046;BME280;64741;41.730;44.788;2023-04-24T12:11:52;987.6;;;24.3;47.6
76046;BME280;64741;41.730;44.788;2023-04-24T12:16:53;987.7;;;24.3;47.9
76046;BME280;64741;41.730;44.788;2023-04-24T12:21:39;987.7;;;24.3;48.1
76046;BME280;64741;41.730;44.788;2023-04-24T12:26:49;987.8;;;24.3;48.1
76046;BME280;64741;41.730;44.788;2023-04-24T12:31:49;987.8;;;24.3;48
76046;BME280;64741;41.730;44.788;2023-04-24T12:36:49;987.8;;;24.3;47.8
76046;BME280;64741;41.730;44.788;2023-04-24T12:41:50;987.8;;;24.3;47.6
76046;BME280;64741;41.730;44.788;2023-04-24T12:46:47;987.9;;;24.3;47.6
76046;BME280;64741;41.730;44.788;2023-04-24T12:51:53;988;;;24.3;47.4
76046;BME280;64741;41.730;44.788;2023-04-24T12:56:25;988.1;;;24.3;47.3
76046;BME280;64741;41.730;44.788;2023-04-24T13:01:53;988.1;;;24.3;47.3
76046;BME280;64741;41.730;44.788;2023-04-24T13:06:49;988.1;;;24.3;47.1
76046;BME280;64741;41.730;44.788;2023-04-24T13:11:49;988.1;;;24.3;47.1
76046;BME280;64741;41.730;44.788;2023-04-24T13:16:49;988.1;;;24.3;47
76046;BME280;64741;41.730;44.788;2023-04-24T13:21:45;988.1;;;24.2;47
76046;BME280;64741;41.730;44.788;2023-04-24T13:26:47;988.1;;;24.2;46.9
76046;BME280;64741;41.730;44.788;2023-04-24T13:31:47;988.1;;;24.2;46.9
76046;BME280;64741;41.730;44.788;2023-04-24T13:36:54;988.1;;;24.2;47.1
76046;BME280;64741;41.730;44.788;2023-04-24T13:41:47;988;;;24.2;47.1
76046;BME280;64741;41.730;44.788;2023-04-24T13:46:46;988;;;24.2;47.1
76046;BME280;64741;41.730;44.788;2023-04-24T13:51:51;988.1;;;24.2;47.3
76046;BME280;64741;41.730;44.788;2023-04-24T13:56:51;988.1;;;24.2;47.7
76046;BME280;64741;41.730;44.788;2023-04-24T14:01:49;988;;;24.2;48.1
76046;BME280;64741;41.730;44.788;2023-04-24T14:06:45;988.1;;;24.3;48.6
76046;BME280;64741;41.730;44.788;2023-04-24T14:11:51;988.1;;;24.3;49.2
76046;BME280;64741;41.730;44.788;2023-04-24T14:16:47;988.1;;;24.3;49.8
76046;BME280;64741;41.730;44.788;2023-04-24T14:21:47;988.2;;;24.3;50.3
76046;BME280;64741;41.730;44.788;2023-04-24T14:26:45;988.1;;;24.3;50.6
76046;BME280;64741;41.730;44.788;2023-04-24T14:31:51;988;;;24.4;50.8
76046;BME280;64741;41.730;44.788;2023-04-24T14:36:51;987.9;;;24.4;51.1
76046;BME280;64741;41.730;44.788;2023-04-24T14:41:49;987.8;;;24.4;51.2
76046;BME280;64741;41.730;44.788;2023-04-24T14:46:53;987.7;;;24.4;52.4
76046;BME280;64741;41.730;44.788;2023-04-24T14:51:49;987.7;;;24.4;52.6
76046;BME280;64741;41.730;44.788;2023-04-24T14:56:49;987.7;;;24.4;52.9
76046;BME280;64741;41.730;44.788;2023-04-24T15:01:45;987.6;;;24.4;53.1
76046;BME280;64741;41.730;44.788;2023-04-24T15:06:47;987.6;;;24.5;53.9
76046;BME280;64741;41.730;44.788;2023-04-24T15:11:49;987.5;;;24.5;53.7
76046;BME280;64741;41.730;44.788;2023-04-24T15:16:47;987.4;;;24.5;53.5
76046;BME280;64741;41.730;44.788;2023-04-24T15:21:53;987.3;;;24.5;53.2
76046;BME280;64741;41.730;44.788;2023-04-24T15:26:45;987.2;;;24.5;52.7
76046;BME280;64741;41.730;44.788;2023-04-24T15:31:51;987.1;;;24.5;52.5
76046;BME280;64741;41.730;44.788;2023-04-24T15:36:49;987.1;;;24.5;52.3
76046;BME280;64741;41.730;44.788;2023-04-24T15:41:51;987.1;;;24.5;51.8
76046;BME280;64741;41.730;44.788;2023-04-24T15:46:51;987.1;;;24.5;52
76046;BME280;64741;41.730;44.788;2023-04-24T15:51:49;987;;;24.6;52
76046;BME280;64741;41.730;44.788;2023-04-24T15:56:51;986.9;;;24.6;52.1
76046;BME280;64741;41.730;44.788;2023-04-24T16:01:49;986.9;;;24.6;51.9
76046;BME280;64741;41.730;44.788;2023-04-24T16:06:49;986.7;;;24.6;52.1
76046;BME280;64741;41.730;44.788;2023-04-24T16:11:37;986.7;;;24.6;52
76046;BME280;64741;41.730;44.788;2023-04-24T16:16:47;986.7;;;24.6;52.3
76046;BME280;64741;41.730;44.788;2023-04-24T16:21:53;986.7;;;24.6;52.5
76046;BME280;64741;41.730;44.788;2023-04-24T16:26:51;986.8;;;24.6;52.4
76046;BME280;64741;41.730;44.788;2023-04-24T16:31:47;986.9;;;24.5;52.2
76046;BME280;64741;41.730;44.788;2023-04-24T16:36:49;986.8;;;24.5;51.8
76046;BME280;64741;41.730;44.788;2023-04-24T16:41:49;986.8;;;24.5;51.6
76046;BME280;64741;41.730;44.788;2023-04-24T16:46:43;986.9;;;24.5;51.4
76046;BME280;64741;41.730;44.788;2023-04-24T16:51:47;987;;;24.5;51.3
76046;BME280;64741;41.730;44.788;2023-04-24T16:56:51;987;;;24.5;51.2
76046;BME280;64741;41.730;44.788;2023-04-24T17:01:53;987.1;;;24.5;51
76046;BME280;64741;41.730;44.788;2023-04-24T17:06:49;987.2;;;24.5;50.9
76046;BME280;64741;41.730;44.788;2023-04-24T17:11:47;987.3;;;24.6;50.8
76046;BME280;64741;41.730;44.788;2023-04-24T17:16:53;987.4;;;24.6;50.6
76046;BME280;64741;41.730;44.788;2023-04-24T17:21:49;987.4;;;24.6;50.5
76046;BME280;64741;41.730;44.788;2023-04-24T17:26:47;987.5;;;24.6;50.4
76046;BME280;64741;41.730;44.788;2023-04-24T17:31:35;987.6;;;24.6;50.3
76046;BME280;64741;41.730;44.788;2023-04-24T17:36:53;987.6;;;24.6;50.2
76046;BME280;64741;41.730;44.788;2023-04-24T17:41:49;987.7;;;24.6;50.1
76046;BME280;64741;41.730;44.788;2023-04-24T17:46:49;987.8;;;24.6;50
76046;BME280;64741;41.730;44.788;2023-04-24T17:51:53;987.9;;;24.7;49.9
76046;BME280;64741;41.730;44.788;2023-04-24T17:56:51;988.1;;;24.6;49.9
76046;BME280;64741;41.730;44.788;2023-04-24T18:01:51;988.1;;;24.7;49.9
76046;BME280;64741;41.730;44.788;2023-04-24T18:06:49;988.1;;;24.7;49.8
76046;BME280;64741;41.730;44.788;2023-04-24T18:11:35;988.2;;;24.7;49.8
76046;BME280;64741;41.730;44.788;2023-04-24T18:16:49;988.2;;;24.7;49.7
76046;BME280;64741;41.730;44.788;2023-04-24T18:21:49;988.3;;;24.7;49.6
76046;BME280;64741;41.730;44.788;2023-04-24T18:26:53;988.5;;;24.7;49.6
76046;BME280;64741;41.730;44.788;2023-04-24T18:31:47;988.6;;;24.7;49.5
76046;BME280;64741;41.730;44.788;2023-04-24T18:36:51;988.7;;;24.7;49.5
76046;BME280;64741;41.730;44.788;2023-04-24T18:41:49;988.8;;;24.7;49.5
76046;BME280;64741;41.730;44.788;2023-04-24T18:46:53;988.8;;;24.7;49.5
76046;BME280;64741;41.730;44.788;2023-04-24T18:51:49;988.8;;;24.7;49.5
76046;BME280;64741;41.730;44.788;2023-04-24T18:56:47;988.9;;;24.7;49.4
76046;BME280;64741;41.730;44.788;2023-04-24T19:01:49;988.9;;;24.7;49.4
76046;BME280;64741;41.730;44.788;2023-04-24T19:06:47;989;;;24.7;49.3
76046;BME280;64741;41.730;44.788;2023-04-24T19:11:47;989;;;24.7;49.3
76046;BME280;64741;41.730;44.788;2023-04-24T19:16:45;988.9;;;24.7;49.3
76046;BME280;64741;41.730;44.788;2023-04-24T19:21:47;988.9;;;24.7;49.3
76046;BME280;64741;41.730;44.788;2023-04-24T19:26:53;988.9;;;24.7;49.2
76046;BME280;64741;41.730;44.788;2023-04-24T19:31:41;988.9;;;24.7;49.1
76046;BME280;64741;41.730;44.788;2023-04-24T19:36:49;989;;;24.7;49.2
76046;BME280;64741;41.730;44.788;2023-04-24T19:41:47;989;;;24.7;49.1
76046;BME280;64741;41.730;44.788;2023-04-24T19:46:47;988.9;;;24.7;49
76046;BME280;64741;41.730;44.788;2023-04-24T19:51:47;989;;;24.7;48.7
76046;BME280;64741;41.730;44.788;2023-04-24T19:56:47;989.1;;;24.7;48.5
76046;BME280;64741;41.730;44.788;2023-04-24T20:01:45;989.1;;;24.6;48.4
76046;BME280;64741;41.730;44.788;2023-04-24T20:06:53;989.1;;;24.6;48.2
76046;BME280;64741;41.730;44.788;2023-04-24T20:11:53;989;;;24.6;48.1
76046;BME280;64741;41.730;44.788;2023-04-24T20:16:49;989;;;24.6;48
76046;BME280;64741;41.730;44.788;2023-04-24T20:21:53;989;;;24.6;48
76046;BME280;64741;41.730;44.788;2023-04-24T20:26:51;989;;;24.5;47.8
76046;BME280;64741;41.730;44.788;2023-04-24T20:31:47;988.9;;;24.5;47.7
76046;BME280;64741;41.730;44.788;2023-04-24T20:36:47;988.9;;;24.5;47.7
76046;BME280;64741;41.730;44.788;2023-04-24T20:41:47;988.7;;;24.4;47.6
76046;BME280;64741;41.730;44.788;2023-04-24T20:46:45;988.8;;;24.4;47.6
76046;BME280;64741;41.730;44.788;2023-04-24T20:51:47;988.8;;;24.4;47.6
76046;BME280;64741;41.730;44.788;2023-04-24T20:56:51;988.7;;;24.4;47.5
76046;BME280;64741;41.730;44.788;2023-04-24T21:01:45;988.7;;;24.3;47.5
76046;BME280;64741;41.730;44.788;2023-04-24T21:06:47;988.9;;;24.3;47.5
76046;BME280;64741;41.730;44.788;2023-04-24T21:11:43;988.9;;;24.3;47.6
76046;BME280;64741;41.730;44.788;2023-04-24T21:16:45;988.9;;;24.3;47.6
76046;BME280;64741;41.730;44.788;2023-04-24T21:21:47;988.8;;;24.3;47.6
76046;BME280;64741;41.730;44.788;2023-04-24T21:26:45;988.9;;;24.3;47.6
76046;BME280;64741;41.730;44.788;2023-04-24T21:31:51;988.9;;;24.3;47.6
76046;BME280;64741;41.730;44.788;2023-04-24T21:36:49;988.8;;;24.3;47.5
76046;BME280;64741;41.730;44.788;2023-04-24T21:41:53;988.8;;;24.3;47.4
76046;BME280;64741;41.730;44.788;2023-04-24T21:46:47;988.8;;;24.3;47.2
76046;BME280;64741;41.730;44.788;2023-04-24T21:51:53;988.7;;;24.3;47.2
76046;BME280;64741;41.730;44.788;2023-04-24T21:56:51;988.6;;;24.2;47.1
76046;BME280;64741;41.730;44.788;2023-04-24T22:01:47;988.6;;;24.2;47
76046;BME280;64741;41.730;44.788;2023-04-24T22:06:49;988.5;;;24.2;47.1
76046;BME280;64741;41.730;44.788;2023-04-24T22:11:49;988.5;;;24.2;47
76046;BME280;64741;41.730;44.788;2023-04-24T22:16:49;988.5;;;24.2;47
76046;BME280;64741;41.730;44.788;2023-04-24T22:21:45;988.6;;;24.2;47.1
76046;BME280;64741;41.730;44.788;2023-04-24T22:26:49;988.7;;;24.2;47.1
76046;BME280;64741;41.730;44.788;2023-04-24T22:31:53;988.6;;;24.2;47.1
76046;BME280;64741;41.730;44.788;2023-04-24T22:36:53;988.6;;;24.2;47
76046;BME280;64741;41.730;44.788;2023-04-24T22:41:51;988.7;;;24.2;46.9
76046;BME280;64741;41.730;44.788;2023-04-24T22:46:49;988.7;;;24.3;46.8
76046;BME280;64741;41.730;44.788;2023-04-24T22:51:49;988.8;;;24.3;46.6
76046;BME280;64741;41.730;44.788;2023-04-24T22:56:49;988.8;;;24.3;46.5
76046;BME280;64741;41.730;44.788;2023-04-24T23:01:49;988.8;;;24.3;46.4
76046;BME280;64741;41.730;44.788;2023-04-24T23:06:35;988.7;;;24.3;46.3
76046;BME280;64741;41.730;44.788;2023-04-24T23:11:53;988.6;;;24.3;46.3
76046;BME280;64741;41.730;44.788;2023-04-24T23:16:53;988.6;;;24.3;46.1
76046;BME280;64741;41.730;44.788;2023-04-24T23:21:39;988.6;;;24.2;46.1
76046;BME280;64741;41.730;44.788;2023-04-24T23:26:53;988.6;;;24.3;46.1
76046;BME280;64741;41.730;44.788;2023-04-24T23:31:49;988.6;;;24.2;46.1
76046;BME280;64741;41.730;44.788;2023-04-24T23:36:49;988.6;;;24.2;46.1
76046;BME280;64741;41.730;44.788;2023-04-24T23:41:45;988.7;;;24.2;46
76046;BME280;64741;41.730;44.788;2023-04-24T23:46:49;988.6;;;24.2;46
76046;BME280;64741;41.730;44.788;2023-04-24T23:51:45;988.6;;;24.2;46
76046;BME280;64741;41.730;44.788;2023-04-24T23:56:48;988.4;;;24.2;45.9
